LFKB 181630Z AUTO 31009KT CAVOK 29/17 Q1008 TEMPO SHRA FEW030 FEW033CB BKN080

ElémentsDécodage
LFKB Station météo située sur l'aérodrome de BASTIA Poretta
181630Z émis le 18 du mois à 16h30 UTC
AUTO Bulletin édité par un automate
31009KT vent du 310°, 09 noeuds
CAVOK Ceiling And Visibility OK
- Visibilité de 10 Km ou plus
- Pas de nuage au-dessous de 1500m ou au-dessous de l'altitude minimale du secteur la plus élevée (si>1500m) et absence de CB
- pas de temps présent significatif
29/17 température 29°C, point de rosée 17°C
 soit une humidité relative de 48%
Q1008 la pression au niveau de la mer (QNH) est de 1008 hPa
TEMPO fluctuation temporaire prévue
SHRA averse(s) de pluie
FEW030 nuages rares (1/8 à 2/8) à 3000 pieds
FEW033CB nuages rares (1/8 à 2/8) à 3300 pieds
 présence de cumulonimbus
BKN080 nuages morcelés (5/8 à 7/8) à 8000 pieds